sensor_id;sensor_type;location;lat;lon;timestamp;pressure;altitude;pressure_sealevel;temperature;humidity
59650;BME280;46162;57.568;25.814;2023-06-01T00:00:04;100522.13;;;5.84;100.00
59650;BME280;46162;57.568;25.814;2023-06-01T00:02:40;100521.72;;;5.88;100.00
59650;BME280;46162;57.568;25.814;2023-06-01T00:05:09;100523.09;;;5.82;100.00
59650;BME280;46162;57.568;25.814;2023-06-01T00:07:37;100527.50;;;5.84;100.00
59650;BME280;46162;57.568;25.814;2023-06-01T00:10:07;100524.56;;;5.75;100.00
59650;BME280;46162;57.568;25.814;2023-06-01T00:12:35;100527.28;;;5.64;100.00
59650;BME280;46162;57.568;25.814;2023-06-01T00:15:05;100530.06;;;5.63;100.00
59650;BME280;46162;57.568;25.814;2023-06-01T00:17:33;100526.28;;;5.65;100.00
59650;BME280;46162;57.568;25.814;2023-06-01T00:20:05;100529.34;;;5.72;100.00
59650;BME280;46162;57.568;25.814;2023-06-01T00:22:35;100534.78;;;5.81;100.00
59650;BME280;46162;57.568;25.814;2023-06-01T00:25:07;100538.59;;;5.68;100.00
59650;BME280;46162;57.568;25.814;2023-06-01T00:27:36;100527.38;;;5.51;100.00
59650;BME280;46162;57.568;25.814;2023-06-01T00:30:05;100536.03;;;5.44;100.00
59650;BME280;46162;57.568;25.814;2023-06-01T00:32:34;100531.78;;;5.52;100.00
59650;BME280;46162;57.568;25.814;2023-06-01T00:35:05;100529.47;;;5.48;100.00
59650;BME280;46162;57.568;25.814;2023-06-01T00:37:33;100532.41;;;5.45;100.00
59650;BME280;46162;57.568;25.814;2023-06-01T00:40:02;100533.63;;;5.41;100.00
59650;BME280;46162;57.568;25.814;2023-06-01T00:42:31;100525.72;;;5.28;100.00
59650;BME280;46162;57.568;25.814;2023-06-01T00:45:00;100532.63;;;5.19;100.00
59650;BME280;46162;57.568;25.814;2023-06-01T00:47:29;100525.72;;;5.05;100.00
59650;BME280;46162;57.568;25.814;2023-06-01T00:49:57;100535.81;;;5.13;100.00
59650;BME280;46162;57.568;25.814;2023-06-01T00:52:27;100538.00;;;5.08;100.00
59650;BME280;46162;57.568;25.814;2023-06-01T00:54:56;100533.88;;;5.15;100.00
59650;BME280;46162;57.568;25.814;2023-06-01T00:57:24;100538.13;;;5.17;100.00
59650;BME280;46162;57.568;25.814;2023-06-01T00:59:55;100528.25;;;5.18;100.00
59650;BME280;46162;57.568;25.814;2023-06-01T01:02:24;100532.66;;;5.08;100.00
59650;BME280;46162;57.568;25.814;2023-06-01T01:04:52;100537.63;;;5.01;100.00
59650;BME280;46162;57.568;25.814;2023-06-01T01:07:31;100532.16;;;5.03;100.00
59650;BME280;46162;57.568;25.814;2023-06-01T01:10:09;100523.88;;;5.06;100.00
59650;BME280;46162;57.568;25.814;2023-06-01T01:12:47;100525.81;;;5.04;100.00
59650;BME280;46162;57.568;25.814;2023-06-01T01:15:24;100522.66;;;4.87;100.00
59650;BME280;46162;57.568;25.814;2023-06-01T01:17:59;100526.91;;;4.90;100.00
59650;BME280;46162;57.568;25.814;2023-06-01T01:20:36;100531.53;;;4.88;100.00
59650;BME280;46162;57.568;25.814;2023-06-01T01:23:14;100529.66;;;4.77;100.00
59650;BME280;46162;57.568;25.814;2023-06-01T01:26:06;100532.13;;;4.80;100.00
59650;BME280;46162;57.568;25.814;2023-06-01T01:28:41;100529.81;;;4.76;100.00
59650;BME280;46162;57.568;25.814;2023-06-01T01:31:13;100528.94;;;4.75;100.00
59650;BME280;46162;57.568;25.814;2023-06-01T01:33:46;100526.53;;;4.83;100.00
59650;BME280;46162;57.568;25.814;2023-06-01T01:36:16;100523.25;;;4.91;100.00
59650;BME280;46162;57.568;25.814;2023-06-01T01:38:44;100527.16;;;4.98;100.00
59650;BME280;46162;57.568;25.814;2023-06-01T01:41:13;100520.72;;;5.01;100.00
59650;BME280;46162;57.568;25.814;2023-06-01T01:43:43;100529.84;;;4.98;100.00
59650;BME280;46162;57.568;25.814;2023-06-01T01:46:21;100534.19;;;4.99;100.00
59650;BME280;46162;57.568;25.814;2023-06-01T01:48:58;100529.72;;;5.00;100.00
59650;BME280;46162;57.568;25.814;2023-06-01T01:51:35;100537.25;;;5.06;100.00
59650;BME280;46162;57.568;25.814;2023-06-01T01:54:06;100536.78;;;5.12;100.00
59650;BME280;46162;57.568;25.814;2023-06-01T01:56:37;100531.66;;;5.09;100.00
59650;BME280;46162;57.568;25.814;2023-06-01T01:59:08;100538.13;;;5.17;100.00
59650;BME280;46162;57.568;25.814;2023-06-01T02:01:37;100530.47;;;5.13;100.00
59650;BME280;46162;57.568;25.814;2023-06-01T02:04:09;100529.47;;;5.14;100.00
59650;BME280;46162;57.568;25.814;2023-06-01T02:06:37;100536.28;;;5.18;100.00
59650;BME280;46162;57.568;25.814;2023-06-01T02:09:06;100539.09;;;5.28;100.00
59650;BME280;46162;57.568;25.814;2023-06-01T02:11:36;100539.84;;;5.30;100.00
59650;BME280;46162;57.568;25.814;2023-06-01T02:14:08;100543.94;;;5.34;100.00
59650;BME280;46162;57.568;25.814;2023-06-01T02:16:37;100555.53;;;5.34;100.00
59650;BME280;46162;57.568;25.814;2023-06-01T02:19:06;100545.53;;;5.36;100.00
59650;BME280;46162;57.568;25.814;2023-06-01T02:21:38;100554.19;;;5.40;100.00
59650;BME280;46162;57.568;25.814;2023-06-01T02:24:07;100556.38;;;5.46;100.00
59650;BME280;46162;57.568;25.814;2023-06-01T02:26:36;100563.19;;;5.50;100.00
59650;BME280;46162;57.568;25.814;2023-06-01T02:29:05;100555.28;;;5.49;100.00
59650;BME280;46162;57.568;25.814;2023-06-01T02:31:35;100559.19;;;5.45;100.00
59650;BME280;46162;57.568;25.814;2023-06-01T02:34:05;100559.41;;;5.53;100.00
59650;BME280;46162;57.568;25.814;2023-06-01T02:36:33;100556.88;;;5.40;100.00
59650;BME280;46162;57.568;25.814;2023-06-01T02:39:02;100554.41;;;5.48;100.00
59650;BME280;46162;57.568;25.814;2023-06-01T02:41:32;100557.25;;;5.47;100.00
59650;BME280;46162;57.568;25.814;2023-06-01T02:44:01;100556.63;;;5.43;100.00
59650;BME280;46162;57.568;25.814;2023-06-01T02:46:30;100558.47;;;5.54;100.00
59650;BME280;46162;57.568;25.814;2023-06-01T02:49:00;100566.34;;;5.55;100.00
59650;BME280;46162;57.568;25.814;2023-06-01T02:51:31;100562.56;;;5.69;100.00
59650;BME280;46162;57.568;25.814;2023-06-01T02:54:20;100561.34;;;5.73;100.00
59650;BME280;46162;57.568;25.814;2023-06-01T02:56:49;100550.13;;;5.79;100.00
59650;BME280;46162;57.568;25.814;2023-06-01T02:59:24;100550.88;;;5.81;100.00
59650;BME280;46162;57.568;25.814;2023-06-01T03:01:58;100555.47;;;5.91;100.00
59650;BME280;46162;57.568;25.814;2023-06-01T03:04:29;100560.84;;;6.02;100.00
59650;BME280;46162;57.568;25.814;2023-06-01T03:07:00;100553.75;;;6.12;100.00
59650;BME280;46162;57.568;25.814;2023-06-01T03:09:46;100554.56;;;6.24;100.00
59650;BME280;46162;57.568;25.814;2023-06-01T03:12:50;100551.97;;;6.34;100.00
59650;BME280;46162;57.568;25.814;2023-06-01T03:15:18;100555.84;;;6.41;100.00
59650;BME280;46162;57.568;25.814;2023-06-01T03:17:47;100548.72;;;6.51;100.00
59650;BME280;46162;57.568;25.814;2023-06-01T03:20:18;100551.75;;;6.58;100.00
59650;BME280;46162;57.568;25.814;2023-06-01T03:22:47;100553.91;;;6.64;100.00
59650;BME280;46162;57.568;25.814;2023-06-01T03:25:16;100555.66;;;6.75;100.00
59650;BME280;46162;57.568;25.814;2023-06-01T03:27:45;100559.53;;;6.82;100.00
59650;BME280;46162;57.568;25.814;2023-06-01T03:30:14;100561.16;;;6.94;100.00
59650;BME280;46162;57.568;25.814;2023-06-01T03:32:43;100557.53;;;6.95;100.00
59650;BME280;46162;57.568;25.814;2023-06-01T03:35:13;100553.78;;;7.07;100.00
59650;BME280;46162;57.568;25.814;2023-06-01T03:37:45;100548.69;;;7.14;100.00
59650;BME280;46162;57.568;25.814;2023-06-01T03:40:17;100556.25;;;7.20;100.00
59650;BME280;46162;57.568;25.814;2023-06-01T03:42:47;100561.50;;;7.31;100.00
59650;BME280;46162;57.568;25.814;2023-06-01T03:45:16;100562.56;;;7.40;100.00
59650;BME280;46162;57.568;25.814;2023-06-01T03:47:46;100560.63;;;7.52;100.00
59650;BME280;46162;57.568;25.814;2023-06-01T03:50:15;100565.56;;;7.57;100.00
59650;BME280;46162;57.568;25.814;2023-06-01T03:52:45;100559.56;;;7.64;100.00
59650;BME280;46162;57.568;25.814;2023-06-01T03:55:14;100546.41;;;7.71;100.00
59650;BME280;46162;57.568;25.814;2023-06-01T03:58:00;100558.75;;;7.83;100.00
59650;BME280;46162;57.568;25.814;2023-06-01T04:00:30;100557.94;;;7.92;100.00
59650;BME280;46162;57.568;25.814;2023-06-01T04:03:02;100555.81;;;8.06;100.00
59650;BME280;46162;57.568;25.814;2023-06-01T04:05:35;100559.41;;;8.16;100.00
59650;BME280;46162;57.568;25.814;2023-06-01T04:08:06;100556.84;;;8.24;100.00
59650;BME280;46162;57.568;25.814;2023-06-01T04:10:36;100559.69;;;8.32;100.00
59650;BME280;46162;57.568;25.814;2023-06-01T04:13:06;100556.19;;;8.42;100.00
59650;BME280;46162;57.568;25.814;2023-06-01T04:15:35;100549.09;;;8.50;100.00
59650;BME280;46162;57.568;25.814;2023-06-01T04:18:04;100549.25;;;8.58;100.00
59650;BME280;46162;57.568;25.814;2023-06-01T04:20:52;100550.63;;;8.72;100.00
59650;BME280;46162;57.568;25.814;2023-06-01T04:23:23;100549.38;;;8.76;100.00
59650;BME280;46162;57.568;25.814;2023-06-01T04:25:52;100546.25;;;8.91;100.00
59650;BME280;46162;57.568;25.814;2023-06-01T04:28:26;100545.50;;;8.98;100.00
59650;BME280;46162;57.568;25.814;2023-06-01T04:30:55;100544.66;;;9.08;100.00
59650;BME280;46162;57.568;25.814;2023-06-01T04:33:25;100544.03;;;9.23;100.00
59650;BME280;46162;57.568;25.814;2023-06-01T04:35:55;100542.75;;;9.28;100.00
59650;BME280;46162;57.568;25.814;2023-06-01T04:38:42;100545.50;;;9.45;100.00
59650;BME280;46162;57.568;25.814;2023-06-01T04:41:11;100538.09;;;9.57;100.00
59650;BME280;46162;57.568;25.814;2023-06-01T04:43:40;100544.84;;;9.61;100.00
59650;BME280;46162;57.568;25.814;2023-06-01T04:46:09;100550.81;;;9.65;100.00
59650;BME280;46162;57.568;25.814;2023-06-01T04:48:39;100544.97;;;9.69;100.00
59650;BME280;46162;57.568;25.814;2023-06-01T04:51:08;100531.03;;;9.74;100.00
59650;BME280;46162;57.568;25.814;2023-06-01T04:53:37;100535.22;;;9.86;100.00
59650;BME280;46162;57.568;25.814;2023-06-01T04:56:07;100541.56;;;9.95;100.00
59650;BME280;46162;57.568;25.814;2023-06-01T04:58:36;100529.41;;;10.09;100.00
59650;BME280;46162;57.568;25.814;2023-06-01T05:01:04;100533.66;;;10.11;100.00
59650;BME280;46162;57.568;25.814;2023-06-01T05:03:34;100523.88;;;10.28;100.00
59650;BME280;46162;57.568;25.814;2023-06-01T05:06:03;100528.72;;;10.25;100.00
59650;BME280;46162;57.568;25.814;2023-06-01T05:08:32;100523.81;;;10.38;100.00
59650;BME280;46162;57.568;25.814;2023-06-01T05:11:03;100528.66;;;10.52;100.00
59650;BME280;46162;57.568;25.814;2023-06-01T05:13:34;100543.94;;;10.62;100.00
59650;BME280;46162;57.568;25.814;2023-06-01T05:16:03;100534.03;;;10.70;100.00
59650;BME280;46162;57.568;25.814;2023-06-01T05:18:32;100534.72;;;10.72;100.00
59650;BME280;46162;57.568;25.814;2023-06-01T05:21:01;100538.28;;;10.73;100.00
59650;BME280;46162;57.568;25.814;2023-06-01T05:23:30;100536.06;;;10.68;100.00
59650;BME280;46162;57.568;25.814;2023-06-01T05:26:00;100542.03;;;10.80;100.00
59650;BME280;46162;57.568;25.814;2023-06-01T05:28:38;100532.41;;;10.95;100.00
59650;BME280;46162;57.568;25.814;2023-06-01T05:31:12;100530.91;;;11.01;100.00
59650;BME280;46162;57.568;25.814;2023-06-01T05:33:48;100536.22;;;11.11;100.00
59650;BME280;46162;57.568;25.814;2023-06-01T05:36:19;100537.63;;;11.23;100.00
59650;BME280;46162;57.568;25.814;2023-06-01T05:38:47;100529.19;;;11.26;100.00
59650;BME280;46162;57.568;25.814;2023-06-01T05:41:16;100531.63;;;11.37;100.00
59650;BME280;46162;57.568;25.814;2023-06-01T05:43:46;100533.84;;;11.42;100.00
59650;BME280;46162;57.568;25.814;2023-06-01T05:46:14;100540.47;;;11.48;100.00
59650;BME280;46162;57.568;25.814;2023-06-01T05:48:43;100541.13;;;11.50;100.00
59650;BME280;46162;57.568;25.814;2023-06-01T05:51:13;100537.78;;;11.48;100.00
59650;BME280;46162;57.568;25.814;2023-06-01T05:53:42;100534.38;;;11.46;100.00
59650;BME280;46162;57.568;25.814;2023-06-01T05:56:11;100536.41;;;11.52;100.00
59650;BME280;46162;57.568;25.814;2023-06-01T05:58:40;100541.06;;;11.68;100.00
59650;BME280;46162;57.568;25.814;2023-06-01T06:01:10;100531.31;;;11.83;100.00
59650;BME280;46162;57.568;25.814;2023-06-01T06:03:38;100526.44;;;11.87;100.00
59650;BME280;46162;57.568;25.814;2023-06-01T06:06:07;100526.97;;;11.90;100.00
59650;BME280;46162;57.568;25.814;2023-06-01T06:08:36;100539.06;;;12.12;100.00
59650;BME280;46162;57.568;25.814;2023-06-01T06:11:05;100536.47;;;12.02;100.00
59650;BME280;46162;57.568;25.814;2023-06-01T06:13:33;100541.38;;;11.99;100.00
59650;BME280;46162;57.568;25.814;2023-06-01T06:16:02;100548.84;;;12.13;100.00
59650;BME280;46162;57.568;25.814;2023-06-01T06:18:33;100543.63;;;12.20;100.00
59650;BME280;46162;57.568;25.814;2023-06-01T06:21:02;100544.81;;;12.17;100.00
59650;BME280;46162;57.568;25.814;2023-06-01T06:23:30;100536.34;;;12.29;100.00
59650;BME280;46162;57.568;25.814;2023-06-01T06:26:00;100541.13;;;12.35;95.32
59650;BME280;46162;57.568;25.814;2023-06-01T06:28:29;100540.91;;;12.12;99.52
59650;BME280;46162;57.568;25.814;2023-06-01T06:30:58;100537.19;;;12.21;99.74
59650;BME280;46162;57.568;25.814;2023-06-01T06:33:27;100543.63;;;12.28;98.29
59650;BME280;46162;57.568;25.814;2023-06-01T06:35:57;100546.16;;;12.21;93.28
59650;BME280;46162;57.568;25.814;2023-06-01T06:38:26;100546.81;;;12.15;90.55
59650;BME280;46162;57.568;25.814;2023-06-01T06:40:54;100545.50;;;12.19;100.00
59650;BME280;46162;57.568;25.814;2023-06-01T06:43:24;100541.47;;;12.32;98.50
59650;BME280;46162;57.568;25.814;2023-06-01T06:45:53;100537.59;;;12.67;99.59
59650;BME280;46162;57.568;25.814;2023-06-01T06:48:21;100534.38;;;12.72;91.98
59650;BME280;46162;57.568;25.814;2023-06-01T06:50:50;100531.31;;;12.83;93.44
59650;BME280;46162;57.568;25.814;2023-06-01T06:53:20;100538.78;;;12.89;92.38
59650;BME280;46162;57.568;25.814;2023-06-01T06:55:49;100530.94;;;13.02;91.10
59650;BME280;46162;57.568;25.814;2023-06-01T06:58:17;100517.41;;;13.02;92.06
59650;BME280;46162;57.568;25.814;2023-06-01T07:00:46;100515.00;;;13.07;91.20
59650;BME280;46162;57.568;25.814;2023-06-01T07:03:15;100521.97;;;13.10;92.89
59650;BME280;46162;57.568;25.814;2023-06-01T07:05:44;100526.19;;;13.29;93.53
59650;BME280;46162;57.568;25.814;2023-06-01T07:08:13;100526.50;;;13.34;90.10
59650;BME280;46162;57.568;25.814;2023-06-01T07:10:44;100522.44;;;13.38;84.49
59650;BME280;46162;57.568;25.814;2023-06-01T07:13:12;100514.63;;;13.43;88.97
59650;BME280;46162;57.568;25.814;2023-06-01T07:15:41;100519.84;;;13.53;85.44
59650;BME280;46162;57.568;25.814;2023-06-01T07:18:10;100507.59;;;13.65;80.27
59650;BME280;46162;57.568;25.814;2023-06-01T07:20:38;100510.13;;;13.67;76.86
59650;BME280;46162;57.568;25.814;2023-06-01T07:23:07;100513.91;;;13.58;75.67
59650;BME280;46162;57.568;25.814;2023-06-01T07:25:36;100513.22;;;13.55;73.91
59650;BME280;46162;57.568;25.814;2023-06-01T07:28:06;100514.22;;;13.63;82.48
59650;BME280;46162;57.568;25.814;2023-06-01T07:30:35;100517.03;;;13.77;83.75
59650;BME280;46162;57.568;25.814;2023-06-01T07:33:04;100511.94;;;13.83;85.91
59650;BME280;46162;57.568;25.814;2023-06-01T07:35:33;100518.13;;;13.91;79.24
59650;BME280;46162;57.568;25.814;2023-06-01T07:38:02;100519.28;;;13.97;87.52
59650;BME280;46162;57.568;25.814;2023-06-01T07:40:31;100505.38;;;14.00;83.79
59650;BME280;46162;57.568;25.814;2023-06-01T07:43:00;100498.75;;;14.03;79.44
59650;BME280;46162;57.568;25.814;2023-06-01T07:45:30;100498.06;;;14.01;84.61
59650;BME280;46162;57.568;25.814;2023-06-01T07:47:59;100512.44;;;14.09;84.19
59650;BME280;46162;57.568;25.814;2023-06-01T07:50:28;100509.44;;;14.27;92.25
59650;BME280;46162;57.568;25.814;2023-06-01T07:52:58;100511.63;;;14.32;82.29
59650;BME280;46162;57.568;25.814;2023-06-01T07:55:27;100508.09;;;14.46;81.72
59650;BME280;46162;57.568;25.814;2023-06-01T07:57:55;100513.13;;;14.34;93.21
59650;BME280;46162;57.568;25.814;2023-06-01T08:00:24;100508.84;;;14.40;91.39
59650;BME280;46162;57.568;25.814;2023-06-01T08:02:55;100490.81;;;14.47;84.50
59650;BME280;46162;57.568;25.814;2023-06-01T08:05:25;100494.97;;;14.58;90.61
59650;BME280;46162;57.568;25.814;2023-06-01T08:07:54;100487.78;;;14.65;85.45
59650;BME280;46162;57.568;25.814;2023-06-01T08:10:24;100498.28;;;14.68;89.60
59650;BME280;46162;57.568;25.814;2023-06-01T08:12:53;100484.59;;;14.61;82.40
59650;BME280;46162;57.568;25.814;2023-06-01T08:15:24;100483.19;;;14.66;81.41
59650;BME280;46162;57.568;25.814;2023-06-01T08:17:56;100484.03;;;14.66;80.00
59650;BME280;46162;57.568;25.814;2023-06-01T08:20:25;100483.31;;;14.72;80.64
59650;BME280;46162;57.568;25.814;2023-06-01T08:22:55;100470.97;;;14.84;77.74
59650;BME280;46162;57.568;25.814;2023-06-01T08:25:24;100469.19;;;14.92;87.01
59650;BME280;46162;57.568;25.814;2023-06-01T08:27:53;100476.41;;;14.84;77.43
59650;BME280;46162;57.568;25.814;2023-06-01T08:30:24;100480.91;;;15.07;78.76
59650;BME280;46162;57.568;25.814;2023-06-01T08:32:53;100480.53;;;15.10;82.83
59650;BME280;46162;57.568;25.814;2023-06-01T08:35:24;100484.50;;;15.22;82.55
59650;BME280;46162;57.568;25.814;2023-06-01T08:37:53;100480.63;;;15.02;74.11
59650;BME280;46162;57.568;25.814;2023-06-01T08:40:21;100478.75;;;14.88;76.61
59650;BME280;46162;57.568;25.814;2023-06-01T08:42:57;100470.97;;;14.84;77.15
59650;BME280;46162;57.568;25.814;2023-06-01T08:45:28;100474.34;;;14.87;79.32
59650;BME280;46162;57.568;25.814;2023-06-01T08:47:58;100464.72;;;14.61;84.35
59650;BME280;46162;57.568;25.814;2023-06-01T08:50:29;100466.84;;;14.74;85.79
59650;BME280;46162;57.568;25.814;2023-06-01T08:52:58;100464.44;;;14.94;92.07
59650;BME280;46162;57.568;25.814;2023-06-01T08:55:28;100462.31;;;14.81;80.88
59650;BME280;46162;57.568;25.814;2023-06-01T08:57:57;100465.66;;;14.68;94.38
59650;BME280;46162;57.568;25.814;2023-06-01T09:00:27;100468.47;;;14.60;84.67
59650;BME280;46162;57.568;25.814;2023-06-01T09:02:56;100459.59;;;14.81;93.87
59650;BME280;46162;57.568;25.814;2023-06-01T09:05:25;100461.78;;;15.15;86.88
59650;BME280;46162;57.568;25.814;2023-06-01T09:07:56;100464.03;;;14.97;87.33
59650;BME280;46162;57.568;25.814;2023-06-01T09:10:25;100459.16;;;15.07;87.01
59650;BME280;46162;57.568;25.814;2023-06-01T09:12:54;100453.56;;;15.23;83.76
59650;BME280;46162;57.568;25.814;2023-06-01T09:15:23;100457.00;;;15.32;90.43
59650;BME280;46162;57.568;25.814;2023-06-01T09:18:05;100457.84;;;15.18;88.60
59650;BME280;46162;57.568;25.814;2023-06-01T09:20:34;100454.00;;;15.27;86.54
59650;BME280;46162;57.568;25.814;2023-06-01T09:23:06;100449.91;;;15.01;90.74
59650;BME280;46162;57.568;25.814;2023-06-01T09:25:35;100458.13;;;14.93;89.42
59650;BME280;46162;57.568;25.814;2023-06-01T09:28:04;100443.97;;;14.98;91.92
59650;BME280;46162;57.568;25.814;2023-06-01T09:30:41;100457.84;;;15.03;96.13
59650;BME280;46162;57.568;25.814;2023-06-01T09:33:11;100462.44;;;15.02;85.72
59650;BME280;46162;57.568;25.814;2023-06-01T09:35:42;100465.53;;;14.84;96.83
59650;BME280;46162;57.568;25.814;2023-06-01T09:38:21;100448.47;;;14.91;90.78
59650;BME280;46162;57.568;25.814;2023-06-01T09:40:56;100452.22;;;15.04;93.01
59650;BME280;46162;57.568;25.814;2023-06-01T09:43:25;100455.88;;;14.97;86.33
59650;BME280;46162;57.568;25.814;2023-06-01T09:46:24;100454.00;;;14.82;88.94
59650;BME280;46162;57.568;25.814;2023-06-01T09:49:05;100459.69;;;14.73;90.90
59650;BME280;46162;57.568;25.814;2023-06-01T09:51:35;100461.41;;;14.74;90.00
59650;BME280;46162;57.568;25.814;2023-06-01T09:54:05;100456.53;;;14.84;97.68
59650;BME280;46162;57.568;25.814;2023-06-01T09:56:42;100456.72;;;14.97;93.62
59650;BME280;46162;57.568;25.814;2023-06-01T09:59:11;100461.88;;;14.92;98.19
59650;BME280;46162;57.568;25.814;2023-06-01T10:01:42;100450.72;;;15.32;94.96
59650;BME280;46162;57.568;25.814;2023-06-01T10:04:14;100451.25;;;15.57;97.23
59650;BME280;46162;57.568;25.814;2023-06-01T10:06:46;100447.53;;;15.73;97.15
59650;BME280;46162;57.568;25.814;2023-06-01T10:09:17;100442.53;;;15.61;88.77
59650;BME280;46162;57.568;25.814;2023-06-01T10:11:47;100451.34;;;15.78;89.61
59650;BME280;46162;57.568;25.814;2023-06-01T10:14:17;100453.41;;;15.76;93.41
59650;BME280;46162;57.568;25.814;2023-06-01T10:16:48;100444.94;;;15.86;78.14
59650;BME280;46162;57.568;25.814;2023-06-01T10:19:18;100434.97;;;16.15;88.18
59650;BME280;46162;57.568;25.814;2023-06-01T10:21:48;100448.09;;;15.89;87.07
59650;BME280;46162;57.568;25.814;2023-06-01T10:24:19;100446.75;;;15.79;86.03
59650;BME280;46162;57.568;25.814;2023-06-01T10:26:54;100435.16;;;15.91;90.55
59650;BME280;46162;57.568;25.814;2023-06-01T10:29:28;100436.31;;;16.04;81.10
59650;BME280;46162;57.568;25.814;2023-06-01T10:31:58;100431.41;;;16.36;83.42
59650;BME280;46162;57.568;25.814;2023-06-01T10:34:41;100439.66;;;16.21;76.80
59650;BME280;46162;57.568;25.814;2023-06-01T10:37:15;100443.72;;;15.88;85.00
59650;BME280;46162;57.568;25.814;2023-06-01T10:39:45;100447.97;;;15.61;91.99
59650;BME280;46162;57.568;25.814;2023-06-01T10:42:39;100455.13;;;15.47;94.44
59650;BME280;46162;57.568;25.814;2023-06-01T10:45:40;100445.41;;;15.23;91.44
59650;BME280;46162;57.568;25.814;2023-06-01T10:48:10;100436.84;;;15.41;94.51
59650;BME280;46162;57.568;25.814;2023-06-01T10:50:40;100444.47;;;15.67;99.56
59650;BME280;46162;57.568;25.814;2023-06-01T10:53:24;100445.44;;;15.45;97.06
59650;BME280;46162;57.568;25.814;2023-06-01T10:56:29;100442.06;;;15.43;97.71
59650;BME280;46162;57.568;25.814;2023-06-01T10:59:11;100445.94;;;15.34;97.88
59650;BME280;46162;57.568;25.814;2023-06-01T11:01:46;100443.69;;;15.08;91.97
59650;BME280;46162;57.568;25.814;2023-06-01T11:04:15;100447.53;;;15.13;100.00
59650;BME280;46162;57.568;25.814;2023-06-01T11:06:44;100439.06;;;15.53;100.00
59650;BME280;46162;57.568;25.814;2023-06-01T11:09:13;100436.78;;;15.86;96.12
59650;BME280;46162;57.568;25.814;2023-06-01T11:12:03;100449.91;;;15.67;96.73
59650;BME280;46162;57.568;25.814;2023-06-01T11:14:32;100443.03;;;15.35;100.00
59650;BME280;46162;57.568;25.814;2023-06-01T11:17:34;100456.00;;;15.18;99.59
59650;BME280;46162;57.568;25.814;2023-06-01T11:20:03;100454.84;;;14.98;100.00
59650;BME280;46162;57.568;25.814;2023-06-01T11:22:38;100445.19;;;14.95;98.05
59650;BME280;46162;57.568;25.814;2023-06-01T11:25:08;100439.09;;;15.08;100.00
59650;BME280;46162;57.568;25.814;2023-06-01T11:27:44;100446.78;;;15.19;100.00
59650;BME280;46162;57.568;25.814;2023-06-01T11:30:18;100451.13;;;15.29;100.00
59650;BME280;46162;57.568;25.814;2023-06-01T11:32:51;100448.97;;;15.09;100.00
59650;BME280;46162;57.568;25.814;2023-06-01T11:35:21;100453.25;;;14.89;100.00
59650;BME280;46162;57.568;25.814;2023-06-01T11:37:55;100442.56;;;14.87;98.44
59650;BME280;46162;57.568;25.814;2023-06-01T11:40:24;100442.09;;;14.98;100.00
59650;BME280;46162;57.568;25.814;2023-06-01T11:43:01;100447.72;;;14.97;100.00
59650;BME280;46162;57.568;25.814;2023-06-01T11:45:30;100460.09;;;14.84;100.00
59650;BME280;46162;57.568;25.814;2023-06-01T11:48:09;100463.25;;;14.73;100.00
59650;BME280;46162;57.568;25.814;2023-06-01T11:50:46;100457.59;;;14.60;100.00
59650;BME280;46162;57.568;25.814;2023-06-01T11:53:15;100466.53;;;14.46;100.00
59650;BME280;46162;57.568;25.814;2023-06-01T11:55:50;100462.91;;;14.30;100.00
59650;BME280;46162;57.568;25.814;2023-06-01T11:58:24;100478.13;;;14.16;100.00
59650;BME280;46162;57.568;25.814;2023-06-01T12:00:54;100469.56;;;14.05;100.00
59650;BME280;46162;57.568;25.814;2023-06-01T12:03:23;100472.69;;;13.93;100.00
59650;BME280;46162;57.568;25.814;2023-06-01T12:05:54;100463.59;;;13.78;100.00
59650;BME280;46162;57.568;25.814;2023-06-01T12:08:24;100477.88;;;13.72;99.59
59650;BME280;46162;57.568;25.814;2023-06-01T12:10:55;100474.53;;;13.62;100.00
59650;BME280;46162;57.568;25.814;2023-06-01T12:13:25;100483.72;;;13.52;97.31
59650;BME280;46162;57.568;25.814;2023-06-01T12:15:55;100483.91;;;13.51;100.00
59650;BME280;46162;57.568;25.814;2023-06-01T12:18:30;100492.94;;;13.43;100.00
59650;BME280;46162;57.568;25.814;2023-06-01T12:20:59;100492.63;;;13.30;100.00
59650;BME280;46162;57.568;25.814;2023-06-01T12:23:28;100501.44;;;13.32;100.00
59650;BME280;46162;57.568;25.814;2023-06-01T12:25:57;100503.50;;;13.13;100.00
59650;BME280;46162;57.568;25.814;2023-06-01T12:28:28;100505.19;;;13.15;100.00
59650;BME280;46162;57.568;25.814;2023-06-01T12:31:14;100509.59;;;13.16;100.00
59650;BME280;46162;57.568;25.814;2023-06-01T12:33:44;100510.47;;;12.91;100.00
59650;BME280;46162;57.568;25.814;2023-06-01T12:36:32;100521.50;;;12.82;100.00
59650;BME280;46162;57.568;25.814;2023-06-01T12:39:03;100520.81;;;12.55;100.00
59650;BME280;46162;57.568;25.814;2023-06-01T12:41:32;100516.41;;;12.30;100.00
59650;BME280;46162;57.568;25.814;2023-06-01T12:44:02;100520.44;;;12.09;100.00
59650;BME280;46162;57.568;25.814;2023-06-01T12:46:31;100523.31;;;12.08;100.00
59650;BME280;46162;57.568;25.814;2023-06-01T12:49:16;100513.22;;;11.75;100.00
59650;BME280;46162;57.568;25.814;2023-06-01T12:51:46;100520.78;;;11.72;100.00
59650;BME280;46162;57.568;25.814;2023-06-01T12:54:14;100520.97;;;11.70;100.00
59650;BME280;46162;57.568;25.814;2023-06-01T12:56:44;100515.81;;;11.51;100.00
59650;BME280;46162;57.568;25.814;2023-06-01T12:59:17;100515.34;;;11.29;100.00